createdAt,value
2017-06-11T00:00:11.697Z,981.01
2017-06-11T00:01:21.964Z,981.01
2017-06-11T00:02:32.225Z,981.04
2017-06-11T00:03:42.176Z,981.01
2017-06-11T00:04:52.436Z,981.01
2017-06-11T00:06:02.693Z,981.03
2017-06-11T00:07:12.642Z,981.02
2017-06-11T00:08:22.598Z,981.04
2017-06-11T00:09:32.863Z,981.05
2017-06-11T00:10:43.124Z,981.09
2017-06-11T00:11:53.385Z,981.09
2017-06-11T00:13:03.647Z,981.1
2017-06-11T00:14:13.909Z,981.12
2017-06-11T00:15:24.174Z,981.13
2017-06-11T00:16:34.438Z,981.12
2017-06-11T00:17:44.385Z,981.05
2017-06-11T00:18:54.377Z,981.07
2017-06-11T00:20:04.647Z,981.06
2017-06-11T00:21:14.591Z,981.04
2017-06-11T00:22:24.229Z,981.04
2017-06-11T00:23:38.235Z,981.01
2017-06-11T00:24:48.498Z,981.05
2017-06-11T00:25:58.758Z,981.02
2017-06-11T00:27:09.017Z,981.02
2017-06-11T00:28:19.280Z,981.04
2017-06-11T00:29:29.540Z,981.03
2017-06-11T00:30:39.801Z,981.05
2017-06-11T00:31:50.070Z,980.98
2017-06-11T00:33:00.020Z,981.02
2017-06-11T00:34:10.286Z,980.97
2017-06-11T00:35:20.545Z,980.95
2017-06-11T00:36:30.809Z,980.95
2017-06-11T00:37:41.077Z,980.93
2017-06-11T00:38:51.026Z,980.96
2017-06-11T00:40:01.293Z,980.94
2017-06-11T00:41:11.562Z,980.93
2017-06-11T00:42:21.821Z,980.93
2017-06-11T00:43:32.076Z,980.98
2017-06-11T00:44:42.341Z,980.96
2017-06-11T00:45:52.602Z,980.94
2017-06-11T00:47:02.868Z,980.97
2017-06-11T00:48:12.819Z,980.96
2017-06-11T00:49:22.768Z,980.99
2017-06-11T00:50:33.034Z,981.02
2017-06-11T00:51:43.293Z,981.05
2017-06-11T00:52:53.556Z,981.04
2017-06-11T00:54:03.500Z,981.05
2017-06-11T00:55:13.444Z,981
2017-06-11T00:56:23.713Z,980.96
2017-06-11T00:57:33.966Z,980.98
2017-06-11T00:58:43.921Z,980.97
2017-06-11T00:59:54.181Z,980.97
2017-06-11T01:01:04.446Z,981.02
2017-06-11T01:02:14.709Z,980.96
2017-06-11T01:03:24.980Z,981.01
2017-06-11T01:04:34.929Z,981.01
2017-06-11T01:05:45.199Z,981.01
2017-06-11T01:06:55.477Z,981.07
2017-06-11T01:08:05.742Z,981.02
2017-06-11T01:09:15.688Z,981.1
2017-06-11T01:10:25.950Z,981.08
2017-06-11T01:11:36.217Z,981.08
2017-06-11T01:12:46.474Z,981.05
2017-06-11T01:13:56.421Z,981.06
2017-06-11T01:15:06.688Z,981.06
2017-06-11T01:16:16.638Z,981.07
2017-06-11T01:17:26.594Z,981.03
2017-06-11T01:18:36.852Z,981.01
2017-06-11T01:19:46.802Z,981.02
2017-06-11T01:20:57.063Z,981.04
2017-06-11T01:22:07.020Z,981.04
2017-06-11T01:23:17.286Z,981.03
2017-06-11T01:24:27.545Z,981.04
2017-06-11T01:25:37.178Z,981.01
2017-06-11T01:26:47.448Z,980.99
2017-06-11T01:27:57.715Z,980.97
2017-06-11T01:29:07.978Z,980.96
2017-06-11T01:30:18.249Z,981
2017-06-11T01:31:28.518Z,981
2017-06-11T01:32:38.782Z,980.98
2017-06-11T01:33:48.735Z,981.01
2017-06-11T01:34:58.680Z,980.99
2017-06-11T01:36:08.937Z,981.03
2017-06-11T01:37:19.197Z,980.98
2017-06-11T01:38:29.460Z,980.95
2017-06-11T01:39:39.428Z,980.94
2017-06-11T01:40:49.698Z,980.93
2017-06-11T01:41:59.958Z,980.93
2017-06-11T01:43:09.917Z,980.89
2017-06-11T01:44:19.869Z,980.83
2017-06-11T01:45:30.136Z,980.83
2017-06-11T01:46:40.396Z,980.82
2017-06-11T01:47:50.658Z,980.82
2017-06-11T01:49:00.648Z,980.78
2017-06-11T01:50:10.910Z,980.8
2017-06-11T01:51:20.860Z,980.83
2017-06-11T01:52:31.121Z,980.82
2017-06-11T01:53:41.378Z,980.75
2017-06-11T01:54:51.644Z,980.76
2017-06-11T01:56:01.920Z,980.76
2017-06-11T01:57:11.873Z,980.81
2017-06-11T01:58:22.130Z,980.73
2017-06-11T01:59:32.401Z,980.72
2017-06-11T02:00:42.677Z,980.69
2017-06-11T02:01:52.943Z,980.7
2017-06-11T02:03:03.400Z,980.68
2017-06-11T02:04:13.035Z,980.63
2017-06-11T02:05:22.982Z,980.64
2017-06-11T02:06:32.617Z,980.64
2017-06-11T02:07:42.880Z,980.6
2017-06-11T02:08:57.148Z,980.59
2017-06-11T02:10:07.410Z,980.62
2017-06-11T02:11:17.676Z,980.6
2017-06-11T02:12:27.957Z,980.6
2017-06-11T02:13:38.223Z,980.62
2017-06-11T02:14:48.733Z,980.57
2017-06-11T02:15:58.995Z,980.55
2017-06-11T02:17:09.258Z,980.52
2017-06-11T02:18:19.533Z,980.56
2017-06-11T02:19:29.797Z,980.57
2017-06-11T02:20:40.096Z,980.57
2017-06-11T02:21:50.046Z,980.58
2017-06-11T02:23:00.307Z,980.6
2017-06-11T02:24:10.567Z,980.55
2017-06-11T02:25:20.833Z,980.55
2017-06-11T02:26:31.091Z,980.54
2017-06-11T02:27:41.037Z,980.49
2017-06-11T02:28:51.294Z,980.48
2017-06-11T02:30:01.553Z,980.42
2017-06-11T02:31:11.843Z,980.45
2017-06-11T02:32:21.789Z,980.43
2017-06-11T02:33:32.054Z,980.37
2017-06-11T02:34:42.322Z,980.44
2017-06-11T02:35:52.581Z,980.44
2017-06-11T02:37:02.847Z,980.44
2017-06-11T02:38:13.107Z,980.45
2017-06-11T02:39:23.382Z,980.41
2017-06-11T02:40:33.646Z,980.43
2017-06-11T02:41:43.597Z,980.43
2017-06-11T02:42:53.861Z,980.36
2017-06-11T02:44:04.123Z,980.37
2017-06-11T02:45:14.381Z,980.36
2017-06-11T02:46:24.010Z,980.34
2017-06-11T02:47:34.267Z,980.34
2017-06-11T02:48:44.529Z,980.35
2017-06-11T02:49:54.504Z,980.35
2017-06-11T02:51:04.766Z,980.31
2017-06-11T02:52:15.025Z,980.35
2017-06-11T02:53:25.284Z,980.34
2017-06-11T02:54:35.546Z,980.37
2017-06-11T02:55:45.813Z,980.37
2017-06-11T02:56:56.073Z,980.35
2017-06-11T02:58:06.019Z,980.36
2017-06-11T02:59:15.962Z,980.35
2017-06-11T03:00:26.222Z,980.34
2017-06-11T03:01:36.195Z,980.35
2017-06-11T03:02:46.463Z,980.36
2017-06-11T03:03:56.722Z,980.32
2017-06-11T03:05:06.979Z,980.32
2017-06-11T03:06:16.932Z,980.35
2017-06-11T03:07:27.187Z,980.33
2017-06-11T03:08:37.447Z,980.33
2017-06-11T03:09:47.716Z,980.34
2017-06-11T03:10:57.667Z,980.37
2017-06-11T03:12:07.929Z,980.36
2017-06-11T03:13:17.873Z,980.35
2017-06-11T03:14:28.133Z,980.34
2017-06-11T03:15:38.077Z,980.32
2017-06-11T03:16:48.023Z,980.35
2017-06-11T03:17:58.292Z,980.32
2017-06-11T03:19:07.924Z,980.34
2017-06-11T03:20:18.185Z,980.33
2017-06-11T03:21:28.445Z,980.32
2017-06-11T03:22:38.707Z,980.32
2017-06-11T03:23:48.653Z,980.28
2017-06-11T03:24:58.914Z,980.25
2017-06-11T03:26:09.178Z,980.29
2017-06-11T03:27:19.433Z,980.25
2017-06-11T03:28:29.694Z,980.26
2017-06-11T03:29:39.968Z,980.27
2017-06-11T03:30:50.223Z,980.25
2017-06-11T03:32:00.482Z,980.27
2017-06-11T03:33:10.740Z,980.28
2017-06-11T03:34:20.689Z,980.34
2017-06-11T03:35:30.959Z,980.35
2017-06-11T03:36:41.227Z,980.3
2017-06-11T03:37:51.489Z,980.3
2017-06-11T03:39:01.753Z,980.26
2017-06-11T03:40:12.018Z,980.24
2017-06-11T03:41:22.272Z,980.27
2017-06-11T03:42:32.529Z,980.26
2017-06-11T03:43:42.793Z,980.2
2017-06-11T03:44:53.056Z,980.22
2017-06-11T03:46:02.694Z,980.21
2017-06-11T03:47:12.640Z,980.2
2017-06-11T03:48:22.280Z,980.19
2017-06-11T03:49:32.228Z,980.21
2017-06-11T03:50:42.174Z,980.25
2017-06-11T03:51:52.436Z,980.28
2017-06-11T03:53:02.703Z,980.29
2017-06-11T03:54:12.650Z,980.35
2017-06-11T03:55:22.921Z,980.42
2017-06-11T03:56:33.184Z,980.52
2017-06-11T03:57:43.131Z,980.66
2017-06-11T03:58:53.083Z,980.76
2017-06-11T04:00:03.384Z,980.82
2017-06-11T04:01:13.642Z,980.84
2017-06-11T04:02:23.905Z,980.84
2017-06-11T04:03:33.855Z,980.82
2017-06-11T04:04:44.148Z,980.82
2017-06-11T04:05:54.437Z,980.74
2017-06-11T04:07:04.706Z,980.71
2017-06-11T04:08:14.972Z,980.7
2017-06-11T04:09:24.923Z,980.72
2017-06-11T04:10:35.192Z,980.74
2017-06-11T04:11:45.167Z,980.77
2017-06-11T04:12:55.430Z,980.73
2017-06-11T04:14:05.690Z,980.65
2017-06-11T04:15:15.636Z,980.6
2017-06-11T04:16:25.902Z,980.65
2017-06-11T04:17:36.191Z,980.62
2017-06-11T04:18:46.457Z,980.68
2017-06-11T04:19:56.721Z,980.7
2017-06-11T04:21:06.674Z,980.66
2017-06-11T04:22:16.940Z,980.63
2017-06-11T04:23:27.205Z,980.64
2017-06-11T04:24:37.159Z,980.64
2017-06-11T04:25:46.798Z,980.64
2017-06-11T04:26:57.053Z,980.59
2017-06-11T04:28:07.318Z,980.6
2017-06-11T04:29:17.271Z,980.56
2017-06-11T04:30:27.219Z,980.56
2017-06-11T04:31:37.169Z,980.56
2017-06-11T04:32:47.121Z,980.53
2017-06-11T04:33:57.383Z,980.52
2017-06-11T04:35:07.330Z,980.57
2017-06-11T04:36:17.275Z,980.51
2017-06-11T04:37:27.534Z,980.51
2017-06-11T04:38:37.801Z,980.44
2017-06-11T04:39:47.751Z,980.41
2017-06-11T04:40:58.014Z,980.41
2017-06-11T04:42:07.965Z,980.42
2017-06-11T04:43:18.222Z,980.36
2017-06-11T04:44:28.518Z,980.31
2017-06-11T04:45:38.463Z,980.32
2017-06-11T04:46:48.726Z,980.21
2017-06-11T04:47:59.004Z,980.13
2017-06-11T04:49:09.270Z,980.11
2017-06-11T04:50:19.533Z,980.11
2017-06-11T04:51:29.798Z,980.09
2017-06-11T04:52:40.061Z,980.05
2017-06-11T04:53:50.327Z,980.02
2017-06-11T04:55:00.276Z,980.11
2017-06-11T04:56:10.545Z,980.1
2017-06-11T04:57:20.817Z,980.16
2017-06-11T04:58:30.777Z,980.18
2017-06-11T04:59:41.036Z,980.1
2017-06-11T05:00:51.299Z,980.09
2017-06-11T05:02:01.562Z,980.08
2017-06-11T05:03:11.831Z,980.04
2017-06-11T05:04:22.090Z,980.03
2017-06-11T05:05:32.345Z,980.01
2017-06-11T05:06:41.974Z,980.02
2017-06-11T05:07:52.236Z,980.04
2017-06-11T05:09:02.188Z,980.02
2017-06-11T05:10:12.458Z,980.02
2017-06-11T05:11:22.722Z,980.02
2017-06-11T05:12:32.986Z,979.97
2017-06-11T05:13:42.935Z,979.99
2017-06-11T05:14:53.209Z,979.99
2017-06-11T05:16:03.163Z,980.03
2017-06-11T05:17:13.431Z,980.06
2017-06-11T05:18:23.379Z,980.15
2017-06-11T05:19:33.643Z,980.13
2017-06-11T05:20:43.909Z,980.08
2017-06-11T05:21:54.185Z,980.08
2017-06-11T05:23:04.449Z,980.06
2017-06-11T05:24:14.718Z,980.01
2017-06-11T05:25:24.985Z,980.02
2017-06-11T05:26:34.617Z,979.98
2017-06-11T05:27:44.571Z,979.94
2017-06-11T05:28:54.830Z,979.96
2017-06-11T05:30:05.098Z,980.03
2017-06-11T05:31:15.363Z,980.02
2017-06-11T05:32:25.617Z,980.06
2017-06-11T05:33:35.881Z,980.02
2017-06-11T05:34:45.517Z,980.03
2017-06-11T05:35:55.774Z,980.01
2017-06-11T05:37:05.721Z,979.97
2017-06-11T05:38:15.985Z,979.96
2017-06-11T05:39:26.253Z,979.91
2017-06-11T05:40:36.511Z,979.91
2017-06-11T05:41:46.463Z,979.94
2017-06-11T05:42:56.742Z,979.92
2017-06-11T05:44:06.999Z,979.94
2017-06-11T05:45:17.264Z,979.95
2017-06-11T05:46:27.214Z,979.94
2017-06-11T05:47:37.492Z,979.92
2017-06-11T05:48:47.440Z,979.9
2017-06-11T05:49:57.696Z,979.9
2017-06-11T05:51:07.977Z,979.79
2017-06-11T05:52:18.241Z,979.8
2017-06-11T05:53:28.504Z,979.83
2017-06-11T05:54:38.455Z,979.81
2017-06-11T05:55:48.713Z,979.82
2017-06-11T05:56:58.978Z,979.8
2017-06-11T05:58:09.238Z,979.83
2017-06-11T05:59:19.500Z,979.8
2017-06-11T06:00:29.764Z,979.88
2017-06-11T06:01:39.713Z,979.95
2017-06-11T06:02:49.354Z,979.94
2017-06-11T06:03:58.991Z,980
2017-06-11T06:05:08.941Z,979.95
2017-06-11T06:06:19.206Z,979.9
2017-06-11T06:07:29.475Z,979.83
2017-06-11T06:08:39.743Z,979.76
2017-06-11T06:09:50.005Z,979.81
2017-06-11T06:10:59.957Z,979.82
2017-06-11T06:12:10.217Z,979.85
2017-06-11T06:13:20.485Z,979.84
2017-06-11T06:14:30.753Z,979.84
2017-06-11T06:15:41.016Z,979.86
2017-06-11T06:16:51.283Z,979.83
2017-06-11T06:18:01.237Z,979.87
2017-06-11T06:19:11.541Z,979.83
2017-06-11T06:20:21.490Z,979.8
2017-06-11T06:21:31.758Z,979.75
2017-06-11T06:22:42.025Z,979.71
2017-06-11T06:23:51.972Z,979.75
2017-06-11T06:25:02.256Z,979.77
2017-06-11T06:26:12.518Z,979.72
2017-06-11T06:27:22.781Z,979.71
2017-06-11T06:28:32.734Z,979.73
2017-06-11T06:29:43.005Z,979.75
2017-06-11T06:30:52.969Z,979.76
2017-06-11T06:32:03.241Z,979.72
2017-06-11T06:33:13.507Z,979.69
2017-06-11T06:34:23.780Z,979.7
2017-06-11T06:35:34.045Z,979.69
2017-06-11T06:36:43.990Z,979.71
2017-06-11T06:37:54.253Z,979.74
2017-06-11T06:39:04.512Z,979.67
2017-06-11T06:40:14.779Z,979.62
2017-06-11T06:41:25.046Z,979.6
2017-06-11T06:42:34.991Z,979.57
2017-06-11T06:43:44.940Z,979.61
2017-06-11T06:44:55.199Z,979.6
2017-06-11T06:46:05.462Z,979.59
2017-06-11T06:47:15.415Z,979.54
2017-06-11T06:48:25.365Z,979.54
2017-06-11T06:49:35.625Z,979.5
2017-06-11T06:50:45.892Z,979.53
2017-06-11T06:51:56.157Z,979.55
2017-06-11T06:53:06.114Z,979.57
2017-06-11T06:54:16.381Z,979.58
2017-06-11T06:55:26.665Z,979.51
2017-06-11T06:56:36.932Z,979.57
2017-06-11T06:57:47.222Z,979.5
2017-06-11T06:58:57.201Z,979.45
2017-06-11T07:00:07.470Z,979.47
2017-06-11T07:01:17.433Z,979.39
2017-06-11T07:02:27.697Z,979.38
2017-06-11T07:03:37.963Z,979.37
2017-06-11T07:04:47.919Z,979.33
2017-06-11T07:05:58.190Z,979.33
2017-06-11T07:07:08.453Z,979.3
2017-06-11T07:08:18.409Z,979.31
2017-06-11T07:09:28.370Z,979.31
2017-06-11T07:10:38.636Z,979.31
2017-06-11T07:11:48.598Z,979.28
2017-06-11T07:12:58.862Z,979.29
2017-06-11T07:14:09.127Z,979.29
2017-06-11T07:15:19.390Z,979.29
2017-06-11T07:16:29.660Z,979.33
2017-06-11T07:17:39.921Z,979.33
2017-06-11T07:18:49.871Z,979.31
2017-06-11T07:19:59.831Z,979.28
2017-06-11T07:21:10.109Z,979.29
2017-06-11T07:22:20.056Z,979.34
2017-06-11T07:23:30.018Z,979.31
2017-06-11T07:24:40.296Z,979.3
2017-06-11T07:25:50.558Z,979.26
2017-06-11T07:27:00.821Z,979.24
2017-06-11T07:28:10.458Z,979.26
2017-06-11T07:29:20.723Z,979.28
2017-06-11T07:30:30.673Z,979.27
2017-06-11T07:31:40.622Z,979.3
2017-06-11T07:32:50.584Z,979.29
2017-06-11T07:34:00.850Z,979.28
2017-06-11T07:35:10.174Z,979.29
2017-06-11T07:36:20.124Z,979.23
2017-06-11T07:37:30.409Z,979.3
2017-06-11T07:38:40.680Z,979.25
2017-06-11T07:39:50.630Z,979.23
2017-06-11T07:41:00.894Z,979.23
2017-06-11T07:42:10.848Z,979.26
2017-06-11T07:43:21.115Z,979.2
2017-06-11T07:44:31.381Z,979.26
2017-06-11T07:45:41.338Z,979.24
2017-06-11T07:46:51.601Z,979.29
2017-06-11T07:48:01.866Z,979.27
2017-06-11T07:49:12.136Z,979.29
2017-06-11T07:50:22.407Z,979.32
2017-06-11T07:51:32.675Z,979.25
2017-06-11T07:52:42.943Z,979.27
2017-06-11T07:53:53.210Z,979.28
2017-06-11T07:55:03.475Z,979.3
2017-06-11T07:56:13.744Z,979.3
2017-06-11T07:57:24.013Z,979.26
2017-06-11T07:58:34.282Z,979.22
2017-06-11T07:59:44.235Z,979.22
2017-06-11T08:00:54.501Z,979.21
2017-06-11T08:02:04.766Z,979.24
2017-06-11T08:03:15.057Z,979.21
2017-06-11T08:04:25.006Z,979.2
2017-06-11T08:05:35.268Z,979.25
2017-06-11T08:06:45.542Z,979.23
2017-06-11T08:07:55.812Z,979.23
2017-06-11T08:09:05.766Z,979.24
2017-06-11T08:10:16.050Z,979.25
2017-06-11T08:11:26.317Z,979.23
2017-06-11T08:12:36.267Z,979.22
2017-06-11T08:13:46.222Z,979.24
2017-06-11T08:14:56.486Z,979.19
2017-06-11T08:16:06.749Z,979.19
2017-06-11T08:17:16.707Z,979.24
2017-06-11T08:18:26.993Z,979.2
2017-06-11T08:19:37.258Z,979.14
2017-06-11T08:20:47.527Z,979.09
2017-06-11T08:21:57.797Z,979.08
2017-06-11T08:23:08.117Z,979.05
2017-06-11T08:24:18.379Z,979.01
2017-06-11T08:25:28.337Z,978.98
2017-06-11T08:26:38.607Z,978.97
2017-06-11T08:27:48.564Z,978.97
2017-06-11T08:28:58.835Z,978.93
2017-06-11T08:30:09.099Z,978.95
2017-06-11T08:31:18.739Z,978.98
2017-06-11T08:32:28.375Z,978.94
2017-06-11T08:33:38.641Z,978.95
2017-06-11T08:34:48.906Z,978.96
2017-06-11T08:35:59.172Z,978.94
2017-06-11T08:37:09.439Z,978.88
2017-06-11T08:38:19.703Z,978.86
2017-06-11T08:39:29.969Z,978.9
2017-06-11T08:40:39.919Z,978.94
2017-06-11T08:41:49.868Z,978.92
2017-06-11T08:43:00.151Z,978.94
2017-06-11T08:44:10.426Z,978.96
2017-06-11T08:45:20.691Z,978.94
2017-06-11T08:46:30.961Z,978.88
2017-06-11T08:47:40.603Z,978.91
2017-06-11T08:48:50.868Z,978.92
2017-06-11T08:50:01.126Z,978.9
2017-06-11T08:51:11.391Z,978.87
2017-06-11T08:52:21.657Z,978.88
2017-06-11T08:53:31.607Z,978.85
2017-06-11T08:54:41.558Z,978.84
2017-06-11T08:55:51.839Z,978.86
2017-06-11T08:57:02.103Z,978.85
2017-06-11T08:58:12.371Z,978.81
2017-06-11T08:59:22.633Z,978.81
2017-06-11T09:00:32.893Z,978.82
2017-06-11T09:01:42.848Z,978.78
2017-06-11T09:02:53.110Z,978.77
2017-06-11T09:04:03.379Z,978.77
2017-06-11T09:05:13.334Z,978.72
2017-06-11T09:06:23.605Z,978.78
2017-06-11T09:07:33.556Z,978.76
2017-06-11T09:08:43.513Z,978.73
2017-06-11T09:09:53.777Z,978.73
2017-06-11T09:11:03.411Z,978.69
2017-06-11T09:12:13.676Z,978.68
2017-06-11T09:13:23.939Z,978.67
2017-06-11T09:14:33.887Z,978.69
2017-06-11T09:15:43.834Z,978.65
2017-06-11T09:16:54.100Z,978.65
2017-06-11T09:18:04.364Z,978.66
2017-06-11T09:19:14.316Z,978.67
2017-06-11T09:20:24.583Z,978.66
2017-06-11T09:21:34.238Z,978.66
2017-06-11T09:22:44.184Z,978.62
2017-06-11T09:23:54.146Z,978.62
2017-06-11T09:25:04.409Z,978.59
2017-06-11T09:26:14.363Z,978.62
2017-06-11T09:27:24.313Z,978.57
2017-06-11T09:28:34.254Z,978.56
2017-06-11T09:29:44.204Z,978.5
2017-06-11T09:30:54.499Z,978.51
2017-06-11T09:32:04.761Z,978.5
2017-06-11T09:33:15.023Z,978.5
2017-06-11T09:34:25.290Z,978.5
2017-06-11T09:35:35.237Z,978.44
2017-06-11T09:36:45.516Z,978.4
2017-06-11T09:37:55.464Z,978.4
2017-06-11T09:39:05.723Z,978.38
2017-06-11T09:40:15.988Z,978.4
2017-06-11T09:41:26.247Z,978.46
2017-06-11T09:42:36.513Z,978.41
2017-06-11T09:43:46.148Z,978.43
2017-06-11T09:44:56.412Z,978.37
2017-06-11T09:46:06.679Z,978.34
2017-06-11T09:47:16.634Z,978.25
2017-06-11T09:48:26.579Z,978.18
2017-06-11T09:49:36.524Z,978.16
2017-06-11T09:50:46.786Z,978.15
2017-06-11T09:51:57.052Z,978.13
2017-06-11T09:53:07.330Z,978.18
2017-06-11T09:54:17.592Z,978.26
2017-06-11T09:55:27.869Z,978.22
2017-06-11T09:56:37.819Z,978.25
2017-06-11T09:57:47.771Z,978.24
2017-06-11T09:58:58.033Z,978.28
2017-06-11T10:00:08.294Z,978.25
2017-06-11T10:01:18.558Z,978.23
2017-06-11T10:02:28.891Z,978.21
2017-06-11T10:03:39.156Z,978.23
2017-06-11T10:04:48.795Z,978.24
2017-06-11T10:05:58.763Z,978.25
2017-06-11T10:07:09.029Z,978.22
2017-06-11T10:08:19.294Z,978.26
2017-06-11T10:09:29.584Z,978.22
2017-06-11T10:10:39.846Z,978.22
2017-06-11T10:11:50.112Z,978.18
2017-06-11T10:13:00.370Z,978.21
2017-06-11T10:14:10.633Z,978.22
2017-06-11T10:15:20.898Z,978.2
2017-06-11T10:16:31.163Z,978.18
2017-06-11T10:17:41.114Z,978.21
2017-06-11T10:18:51.379Z,978.19
2017-06-11T10:20:01.019Z,978.2
2017-06-11T10:21:11.279Z,978.15
2017-06-11T10:22:21.543Z,978.18
2017-06-11T10:23:31.837Z,978.15
2017-06-11T10:24:42.097Z,978.14
2017-06-11T10:25:52.359Z,978.18
2017-06-11T10:27:02.314Z,978.12
2017-06-11T10:28:12.575Z,978.15
2017-06-11T10:29:22.833Z,978.1
2017-06-11T10:30:33.101Z,978.07
2017-06-11T10:31:43.360Z,978.07
2017-06-11T10:32:53.309Z,978.07
2017-06-11T10:34:02.630Z,978.05
2017-06-11T10:35:12.896Z,978.05
2017-06-11T10:36:22.852Z,978.03
2017-06-11T10:37:33.109Z,978.01
2017-06-11T10:38:43.056Z,977.96
2017-06-11T10:39:53.319Z,977.91
2017-06-11T10:41:03.264Z,977.9
2017-06-11T10:42:13.213Z,977.92
2017-06-11T10:43:23.478Z,977.89
2017-06-11T10:44:33.745Z,977.89
2017-06-11T10:45:43.691Z,977.85
2017-06-11T10:46:53.645Z,977.88
2017-06-11T10:48:03.592Z,977.85
2017-06-11T10:49:13.859Z,977.82
2017-06-11T10:50:23.814Z,977.85
2017-06-11T10:51:33.766Z,977.8
2017-06-11T10:52:44.036Z,977.77
2017-06-11T10:53:54.301Z,977.76
2017-06-11T10:55:04.567Z,977.76
2017-06-11T10:56:14.529Z,977.77
2017-06-11T10:57:24.802Z,977.76
2017-06-11T10:58:35.064Z,977.76
2017-06-11T10:59:45.013Z,977.68
2017-06-11T11:00:55.280Z,977.68
2017-06-11T11:02:05.545Z,977.63
2017-06-11T11:03:15.807Z,977.61
2017-06-11T11:04:25.758Z,977.63
2017-06-11T11:05:35.703Z,977.63
2017-06-11T11:06:45.653Z,977.59
2017-06-11T11:07:55.926Z,977.62
2017-06-11T11:09:06.190Z,977.6
2017-06-11T11:10:16.452Z,977.61
2017-06-11T11:11:26.718Z,977.57
2017-06-11T11:12:36.983Z,977.64
2017-06-11T11:13:46.934Z,977.68
2017-06-11T11:14:57.201Z,977.67
2017-06-11T11:16:07.462Z,977.67
2017-06-11T11:17:17.718Z,977.66
2017-06-11T11:18:27.981Z,977.7
2017-06-11T11:19:38.244Z,977.7
2017-06-11T11:20:48.502Z,977.66
2017-06-11T11:21:58.135Z,977.64
2017-06-11T11:23:08.406Z,977.63
2017-06-11T11:24:18.687Z,977.63
2017-06-11T11:25:28.634Z,977.6
2017-06-11T11:26:38.892Z,977.65
2017-06-11T11:27:48.846Z,977.67
2017-06-11T11:28:58.792Z,977.64
2017-06-11T11:30:08.743Z,977.65
2017-06-11T11:31:19.000Z,977.66
2017-06-11T11:32:28.624Z,977.62
2017-06-11T11:33:38.878Z,977.61
2017-06-11T11:34:49.137Z,977.55
2017-06-11T11:35:58.489Z,977.5
2017-06-11T11:37:08.753Z,977.58
2017-06-11T11:38:19.010Z,977.52
2017-06-11T11:39:28.971Z,977.58
2017-06-11T11:40:38.915Z,977.55
2017-06-11T11:41:48.860Z,977.54
2017-06-11T11:42:58.805Z,977.55
2017-06-11T11:44:09.064Z,977.55
2017-06-11T11:45:19.008Z,977.56
2017-06-11T11:46:28.955Z,977.52
2017-06-11T11:47:39.221Z,977.5
2017-06-11T11:48:49.166Z,977.44
2017-06-11T11:49:59.114Z,977.45
2017-06-11T11:51:09.376Z,977.43
2017-06-11T11:52:19.643Z,977.41
2017-06-11T11:53:29.897Z,977.4
2017-06-11T11:54:40.165Z,977.44
2017-06-11T11:55:50.424Z,977.44
2017-06-11T11:57:00.375Z,977.41
2017-06-11T11:58:10.315Z,977.41
2017-06-11T11:59:19.942Z,977.38
2017-06-11T12:00:29.884Z,977.39
2017-06-11T12:01:40.148Z,977.36
2017-06-11T12:02:50.407Z,977.35
2017-06-11T12:04:00.351Z,977.41
2017-06-11T12:05:10.296Z,977.37
2017-06-11T12:06:20.553Z,977.35
2017-06-11T12:07:30.497Z,977.34
2017-06-11T12:08:40.755Z,977.34
2017-06-11T12:09:50.699Z,977.35
2017-06-11T12:11:00.652Z,977.33
2017-06-11T12:12:10.600Z,977.29
2017-06-11T12:13:20.888Z,977.26
2017-06-11T12:14:31.152Z,977.26
2017-06-11T12:15:40.781Z,977.22
2017-06-11T12:16:51.039Z,977.2
2017-06-11T12:18:01.293Z,977.16
2017-06-11T12:19:11.552Z,977.16
2017-06-11T12:20:21.808Z,977.13
2017-06-11T12:21:32.067Z,977.14
2017-06-11T12:22:41.696Z,977.09
2017-06-11T12:23:51.642Z,977.1
2017-06-11T12:25:01.900Z,977.1
2017-06-11T12:26:12.166Z,977.09
2017-06-11T12:27:22.431Z,977.09
2017-06-11T12:28:32.694Z,977.06
2017-06-11T12:29:42.950Z,977.01
2017-06-11T12:30:52.896Z,977.02
2017-06-11T12:32:02.844Z,977.07
2017-06-11T12:33:13.106Z,977
2017-06-11T12:34:23.370Z,977.04
2017-06-11T12:35:33.630Z,976.97
2017-06-11T12:36:43.888Z,976.95
2017-06-11T12:37:54.155Z,976.96
2017-06-11T12:39:04.111Z,976.91
2017-06-11T12:40:14.057Z,976.89
2017-06-11T12:41:24.002Z,976.85
2017-06-11T12:42:34.266Z,976.85
2017-06-11T12:43:44.527Z,976.86
2017-06-11T12:44:54.788Z,976.83
2017-06-11T12:46:04.725Z,976.8
2017-06-11T12:47:14.674Z,976.74
2017-06-11T12:48:24.933Z,976.75
2017-06-11T12:49:35.191Z,976.74
2017-06-11T12:50:45.448Z,976.69
2017-06-11T12:51:55.396Z,976.71
2017-06-11T12:53:05.656Z,976.7
2017-06-11T12:54:15.917Z,976.7
2017-06-11T12:55:26.178Z,976.69
2017-06-11T12:56:36.126Z,976.68
2017-06-11T12:57:46.587Z,976.54
2017-06-11T12:58:56.853Z,976.51
2017-06-11T13:00:07.114Z,976.48
2017-06-11T13:01:17.378Z,976.46
2017-06-11T13:02:27.650Z,976.49
2017-06-11T13:03:37.913Z,976.5
2017-06-11T13:04:48.174Z,976.48
2017-06-11T13:05:58.124Z,976.39
2017-06-11T13:07:07.759Z,976.38
2017-06-11T13:08:17.707Z,976.38
2017-06-11T13:09:27.658Z,976.38
2017-06-11T13:10:37.295Z,976.39
2017-06-11T13:11:46.929Z,976.4
2017-06-11T13:12:56.875Z,976.39
2017-06-11T13:14:07.137Z,976.41
2017-06-11T13:15:17.402Z,976.41
2017-06-11T13:16:27.343Z,976.35
2017-06-11T13:17:37.602Z,976.32
2017-06-11T13:18:47.553Z,976.34
2017-06-11T13:19:57.817Z,976.3
2017-06-11T13:21:08.085Z,976.26
2017-06-11T13:22:18.350Z,976.27
2017-06-11T13:23:28.614Z,976.27
2017-06-11T13:24:38.564Z,976.26
2017-06-11T13:25:48.825Z,976.25
2017-06-11T13:26:59.083Z,976.22
2017-06-11T13:28:09.344Z,976.27
2017-06-11T13:29:19.609Z,976.27
2017-06-11T13:30:29.554Z,976.25
2017-06-11T13:31:39.819Z,976.2
2017-06-11T13:32:50.084Z,976.2
2017-06-11T13:33:59.713Z,976.18
2017-06-11T13:35:09.970Z,976.19
2017-06-11T13:36:20.236Z,976.17
2017-06-11T13:37:30.182Z,976.15
2017-06-11T13:38:40.135Z,976.09
2017-06-11T13:39:50.078Z,976.06
2017-06-11T13:41:00.026Z,976.03
2017-06-11T13:42:10.285Z,976
2017-06-11T13:43:20.545Z,975.99
2017-06-11T13:44:30.855Z,975.98
2017-06-11T13:45:41.144Z,976.01
2017-06-11T13:46:51.411Z,975.99
2017-06-11T13:48:01.681Z,975.99
2017-06-11T13:49:11.631Z,975.98
2017-06-11T13:50:21.886Z,975.94
2017-06-11T13:51:32.146Z,975.94
2017-06-11T13:52:41.813Z,975.91
2017-06-11T13:53:52.092Z,975.93
2017-06-11T13:55:01.728Z,975.85
2017-06-11T13:56:11.995Z,975.86
2017-06-11T13:57:22.255Z,975.84
2017-06-11T13:58:32.515Z,975.81
2017-06-11T13:59:42.779Z,975.73
2017-06-11T14:00:53.033Z,975.71
2017-06-11T14:02:03.289Z,975.72
2017-06-11T14:03:13.241Z,975.69
2017-06-11T14:04:23.191Z,975.7
2017-06-11T14:05:33.140Z,975.67
2017-06-11T14:06:42.773Z,975.64
2017-06-11T14:07:52.730Z,975.64
2017-06-11T14:09:02.670Z,975.65
2017-06-11T14:10:12.926Z,975.64
2017-06-11T14:11:23.187Z,975.63
2017-06-11T14:12:33.134Z,975.59
2017-06-11T14:13:43.397Z,975.6
2017-06-11T14:14:53.650Z,975.54
2017-06-11T14:16:03.908Z,975.59
2017-06-11T14:17:14.172Z,975.56
2017-06-11T14:18:24.430Z,975.49
2017-06-11T14:19:34.685Z,975.47
2017-06-11T14:20:44.950Z,975.51
2017-06-11T14:21:55.211Z,975.53
2017-06-11T14:23:05.156Z,975.53
2017-06-11T14:24:15.113Z,975.47
2017-06-11T14:25:25.056Z,975.47
2017-06-11T14:26:35.321Z,975.49
2017-06-11T14:27:45.579Z,975.43
2017-06-11T14:28:55.525Z,975.43
2017-06-11T14:30:05.474Z,975.42
2017-06-11T14:31:15.742Z,975.34
2017-06-11T14:32:25.688Z,975.3
2017-06-11T14:33:35.946Z,975.28
2017-06-11T14:34:46.199Z,975.21
2017-06-11T14:35:55.828Z,975.24
2017-06-11T14:37:06.086Z,975.21
2017-06-11T14:38:16.347Z,975.16